Dry Creek, Mississippi
Current Conditions -  °F | °C
As of 6:55 AM on Friday 19 Dec 2014 (Local Time) from KPIB Reporting Station
Overcast Overcast  
Wind Chill: 44°   Ceiling: 2300
Heat Index: 46°   Visibility: 10mi
Dew Point: 39°   Wind: 6mph
Humidity: 76%   Direction: 30°NNE
Pressure: 30.18"   Gusts: NA
Location:  31.6692°N, 89.543°W
Report Text: KPIB 191255Z AUTO 03005KT 10SM OVC023 08/04 A3018 RMK AO1
Loading
Personal Weather Stations






























Interactive Weather Map New forecast layout! Learn more

10-Day Weather Forecast

Advertisements
Track Severe Weather on mobile